sensor_id;sensor_type;location;lat;lon;timestamp;pressure;altitude;pressure_sealevel;temperature;humidity
9141;BME280;46330;50.822;7.126;2022-08-11T00:02:23;101483.34;;;21.09;45.96
9141;BME280;46330;50.822;7.126;2022-08-11T00:04:53;101491.03;;;20.96;46.93
9141;BME280;46330;50.822;7.126;2022-08-11T00:07:23;101482.28;;;20.94;46.70
9141;BME280;46330;50.822;7.126;2022-08-11T00:09:54;101476.19;;;20.92;47.40
9141;BME280;46330;50.822;7.126;2022-08-11T00:12:22;101473.16;;;20.81;47.50
9141;BME280;46330;50.822;7.126;2022-08-11T00:14:55;101470.16;;;20.70;47.66
9141;BME280;46330;50.822;7.126;2022-08-11T00:17:26;101479.00;;;20.70;47.47
9141;BME280;46330;50.822;7.126;2022-08-11T00:20:01;101474.25;;;20.58;48.02
9141;BME280;46330;50.822;7.126;2022-08-11T00:22:43;101478.59;;;20.61;48.90
9141;BME280;46330;50.822;7.126;2022-08-11T00:25:15;101476.28;;;20.53;48.44
9141;BME280;46330;50.822;7.126;2022-08-11T00:27:44;101483.03;;;20.42;49.62
9141;BME280;46330;50.822;7.126;2022-08-11T00:30:14;101474.03;;;20.44;49.39
9141;BME280;46330;50.822;7.126;2022-08-11T00:32:44;101477.44;;;20.48;49.79
9141;BME280;46330;50.822;7.126;2022-08-11T00:35:14;101482.22;;;20.39;50.01
9141;BME280;46330;50.822;7.126;2022-08-11T00:38:05;101485.75;;;20.40;49.43
9141;BME280;46330;50.822;7.126;2022-08-11T00:40:40;101479.69;;;20.36;49.38
9141;BME280;46330;50.822;7.126;2022-08-11T00:43:20;101478.28;;;20.29;49.72
9141;BME280;46330;50.822;7.126;2022-08-11T00:46:15;101476.81;;;20.22;50.44
9141;BME280;46330;50.822;7.126;2022-08-11T00:48:54;101476.06;;;20.19;49.77
9141;BME280;46330;50.822;7.126;2022-08-11T00:51:39;101475.44;;;20.14;50.00
9141;BME280;46330;50.822;7.126;2022-08-11T01:01:07;101479.56;;;19.80;52.01
9141;BME280;46330;50.822;7.126;2022-08-11T01:03:58;101485.63;;;19.84;52.79
9141;BME280;46330;50.822;7.126;2022-08-11T01:06:46;101478.59;;;19.83;52.18
9141;BME280;46330;50.822;7.126;2022-08-11T01:09:28;101482.50;;;19.74;51.93
9141;BME280;46330;50.822;7.126;2022-08-11T01:12:17;101482.75;;;19.68;51.02
9141;BME280;46330;50.822;7.126;2022-08-11T01:15:23;101490.59;;;19.51;51.58
9141;BME280;46330;50.822;7.126;2022-08-11T01:18:37;101485.31;;;19.51;52.22
9141;BME280;46330;50.822;7.126;2022-08-11T01:34:13;101482.81;;;19.47;52.29
9141;BME280;46330;50.822;7.126;2022-08-11T01:37:01;101488.38;;;19.41;53.24
9141;BME280;46330;50.822;7.126;2022-08-11T01:40:20;101491.41;;;19.31;52.95
9141;BME280;46330;50.822;7.126;2022-08-11T01:43:21;101493.53;;;19.23;53.62
9141;BME280;46330;50.822;7.126;2022-08-11T01:46:20;101494.81;;;19.13;54.04
9141;BME280;46330;50.822;7.126;2022-08-11T01:49:01;101491.75;;;19.02;53.80
9141;BME280;46330;50.822;7.126;2022-08-11T01:52:08;101489.75;;;18.86;54.39
9141;BME280;46330;50.822;7.126;2022-08-11T01:54:43;101488.34;;;18.77;55.04
9141;BME280;46330;50.822;7.126;2022-08-11T01:57:27;101491.91;;;18.76;54.74
9141;BME280;46330;50.822;7.126;2022-08-11T02:00:06;101489.31;;;18.74;54.60
9141;BME280;46330;50.822;7.126;2022-08-11T02:02:44;101490.28;;;18.72;55.29
9141;BME280;46330;50.822;7.126;2022-08-11T02:05:26;101497.50;;;18.68;55.82
9141;BME280;46330;50.822;7.126;2022-08-11T02:08:02;101487.13;;;18.62;55.47
9141;BME280;46330;50.822;7.126;2022-08-11T02:10:43;101494.97;;;18.65;56.07
9141;BME280;46330;50.822;7.126;2022-08-11T02:13:40;101495.09;;;18.62;56.43
9141;BME280;46330;50.822;7.126;2022-08-11T02:16:16;101497.63;;;18.65;56.62
9141;BME280;46330;50.822;7.126;2022-08-11T02:18:51;101497.69;;;18.64;56.37
9141;BME280;46330;50.822;7.126;2022-08-11T02:21:43;101495.41;;;18.55;56.68
9141;BME280;46330;50.822;7.126;2022-08-11T02:24:34;101492.81;;;18.53;56.33
9141;BME280;46330;50.822;7.126;2022-08-11T02:27:13;101499.03;;;18.52;56.41
9141;BME280;46330;50.822;7.126;2022-08-11T02:29:49;101496.44;;;18.51;56.29
9141;BME280;46330;50.822;7.126;2022-08-11T02:32:21;101496.63;;;18.45;55.62
9141;BME280;46330;50.822;7.126;2022-08-11T02:35:13;101497.09;;;18.33;55.61
9141;BME280;46330;50.822;7.126;2022-08-11T02:37:52;101505.31;;;18.25;56.62
9141;BME280;46330;50.822;7.126;2022-08-11T02:40:33;101495.91;;;18.18;56.98
9141;BME280;46330;50.822;7.126;2022-08-11T02:43:12;101500.13;;;18.22;57.00
9141;BME280;46330;50.822;7.126;2022-08-11T02:45:51;101495.81;;;18.19;56.80
9141;BME280;46330;50.822;7.126;2022-08-11T02:48:31;101500.38;;;18.16;56.92
9141;BME280;46330;50.822;7.126;2022-08-11T02:51:24;101491.66;;;18.12;56.98
9141;BME280;46330;50.822;7.126;2022-08-11T02:54:01;101491.66;;;18.12;57.26
9141;BME280;46330;50.822;7.126;2022-08-11T02:56:42;101495.38;;;18.08;57.35
9141;BME280;46330;50.822;7.126;2022-08-11T02:59:22;101501.16;;;17.95;56.85
9141;BME280;46330;50.822;7.126;2022-08-11T03:02:14;101491.69;;;17.88;57.45
9141;BME280;46330;50.822;7.126;2022-08-11T03:04:53;101498.16;;;17.81;57.78
9141;BME280;46330;50.822;7.126;2022-08-11T03:07:24;101505.25;;;17.79;58.29
9141;BME280;46330;50.822;7.126;2022-08-11T03:10:03;101499.94;;;17.80;58.16
9141;BME280;46330;50.822;7.126;2022-08-11T03:12:44;101495.38;;;17.84;58.18
9141;BME280;46330;50.822;7.126;2022-08-11T03:15:41;101492.75;;;17.84;58.21
9141;BME280;46330;50.822;7.126;2022-08-11T03:18:30;101485.59;;;17.86;58.17
9141;BME280;46330;50.822;7.126;2022-08-11T03:21:06;101488.25;;;17.86;58.45
9141;BME280;46330;50.822;7.126;2022-08-11T03:23:40;101495.28;;;17.87;58.26
9141;BME280;46330;50.822;7.126;2022-08-11T03:26:21;101491.66;;;17.89;58.11
9141;BME280;46330;50.822;7.126;2022-08-11T03:28:52;101485.06;;;17.76;56.98
9141;BME280;46330;50.822;7.126;2022-08-11T03:31:29;101483.66;;;17.66;57.31
9141;BME280;46330;50.822;7.126;2022-08-11T03:34:00;101490.72;;;17.65;57.05
9141;BME280;46330;50.822;7.126;2022-08-11T03:36:51;101488.28;;;17.59;56.98
9141;BME280;46330;50.822;7.126;2022-08-11T03:39:47;101488.47;;;17.55;56.96
9141;BME280;46330;50.822;7.126;2022-08-11T03:42:28;101489.34;;;17.55;56.83
9141;BME280;46330;50.822;7.126;2022-08-11T03:45:06;101483.00;;;17.59;56.83
9141;BME280;46330;50.822;7.126;2022-08-11T03:47:59;101483.97;;;17.57;57.05
9141;BME280;46330;50.822;7.126;2022-08-11T03:50:46;101492.88;;;17.53;56.98
9141;BME280;46330;50.822;7.126;2022-08-11T03:53:34;101487.47;;;17.57;57.07
9141;BME280;46330;50.822;7.126;2022-08-11T03:56:46;101492.66;;;17.60;58.02
9141;BME280;46330;50.822;7.126;2022-08-11T04:12:17;101497.78;;;17.39;58.19
9141;BME280;46330;50.822;7.126;2022-08-11T04:22:13;101499.63;;;17.37;58.47
9141;BME280;46330;50.822;7.126;2022-08-11T04:28:52;101495.56;;;17.27;58.64
9141;BME280;46330;50.822;7.126;2022-08-11T04:31:34;101493.81;;;17.26;58.68
9141;BME280;46330;50.822;7.126;2022-08-11T04:34:43;101491.34;;;17.21;58.88
9141;BME280;46330;50.822;7.126;2022-08-11T04:37:42;101503.16;;;17.09;58.94
9141;BME280;46330;50.822;7.126;2022-08-11T04:40:54;101497.75;;;17.14;58.94
9141;BME280;46330;50.822;7.126;2022-08-11T04:47:07;101504.09;;;17.35;58.31
9141;BME280;46330;50.822;7.126;2022-08-11T04:49:54;101512.69;;;17.41;58.04
9141;BME280;46330;50.822;7.126;2022-08-11T04:53:21;101516.75;;;17.51;57.71
9141;BME280;46330;50.822;7.126;2022-08-11T04:56:20;101516.38;;;17.63;57.19
9141;BME280;46330;50.822;7.126;2022-08-11T04:59:37;101523.78;;;17.79;56.94
9141;BME280;46330;50.822;7.126;2022-08-11T05:05:54;101521.03;;;18.06;56.12
9141;BME280;46330;50.822;7.126;2022-08-11T05:08:49;101523.56;;;18.09;55.78
9141;BME280;46330;50.822;7.126;2022-08-11T05:14:32;101514.97;;;18.27;55.24
9141;BME280;46330;50.822;7.126;2022-08-11T05:17:33;101512.19;;;18.55;54.67
9141;BME280;46330;50.822;7.126;2022-08-11T05:20:24;101515.50;;;18.60;53.96
9141;BME280;46330;50.822;7.126;2022-08-11T05:23:11;101509.44;;;18.80;53.77
9141;BME280;46330;50.822;7.126;2022-08-11T05:26:15;101514.00;;;18.98;52.93
9141;BME280;46330;50.822;7.126;2022-08-11T05:29:26;101526.94;;;19.49;51.40
9141;BME280;46330;50.822;7.126;2022-08-11T05:32:15;101527.69;;;19.53;50.78
9141;BME280;46330;50.822;7.126;2022-08-11T05:35:04;101528.84;;;19.88;50.50
9141;BME280;46330;50.822;7.126;2022-08-11T05:37:40;101528.44;;;19.97;49.72
9141;BME280;46330;50.822;7.126;2022-08-11T05:40:24;101533.00;;;20.33;48.81
9141;BME280;46330;50.822;7.126;2022-08-11T05:43:19;101525.97;;;20.32;48.47
9141;BME280;46330;50.822;7.126;2022-08-11T05:46:27;101535.16;;;20.24;48.24
9141;BME280;46330;50.822;7.126;2022-08-11T05:49:13;101535.19;;;20.63;47.11
9141;BME280;46330;50.822;7.126;2022-08-11T05:51:59;101525.91;;;20.53;46.75
9141;BME280;46330;50.822;7.126;2022-08-11T05:54:46;101535.19;;;20.63;47.35
9141;BME280;46330;50.822;7.126;2022-08-11T05:57:36;101540.22;;;20.69;46.90
9141;BME280;46330;50.822;7.126;2022-08-11T06:00:17;101537.69;;;20.47;47.00
9141;BME280;46330;50.822;7.126;2022-08-11T06:02:50;101542.09;;;20.85;46.39
9141;BME280;46330;50.822;7.126;2022-08-11T06:05:31;101537.53;;;21.25;45.78
9141;BME280;46330;50.822;7.126;2022-08-11T06:08:11;101540.28;;;21.23;45.47
9141;BME280;46330;50.822;7.126;2022-08-11T06:10:40;101540.75;;;21.31;45.95
9141;BME280;46330;50.822;7.126;2022-08-11T06:13:14;101539.94;;;21.65;44.57
9141;BME280;46330;50.822;7.126;2022-08-11T06:15:45;101538.53;;;21.75;44.05
9141;BME280;46330;50.822;7.126;2022-08-11T06:18:13;101542.47;;;21.85;43.36
9141;BME280;46330;50.822;7.126;2022-08-11T06:20:46;101537.03;;;22.70;41.68
9141;BME280;46330;50.822;7.126;2022-08-11T06:23:16;101537.72;;;22.25;42.46
9141;BME280;46330;50.822;7.126;2022-08-11T06:25:46;101532.41;;;22.89;41.24
9141;BME280;46330;50.822;7.126;2022-08-11T06:28:16;101533.88;;;23.26;40.93
9141;BME280;46330;50.822;7.126;2022-08-11T06:30:48;101540.00;;;22.65;42.06
9141;BME280;46330;50.822;7.126;2022-08-11T06:33:20;101537.78;;;22.56;41.74
9141;BME280;46330;50.822;7.126;2022-08-11T06:36:01;101543.06;;;23.36;40.19
9141;BME280;46330;50.822;7.126;2022-08-11T06:38:44;101535.91;;;24.12;39.09
9141;BME280;46330;50.822;7.126;2022-08-11T06:41:17;101536.00;;;23.94;38.93
9141;BME280;46330;50.822;7.126;2022-08-11T06:44:08;101532.84;;;24.32;38.54
9141;BME280;46330;50.822;7.126;2022-08-11T06:46:43;101534.97;;;24.41;37.55
9141;BME280;46330;50.822;7.126;2022-08-11T06:49:14;101537.16;;;25.03;37.06
9141;BME280;46330;50.822;7.126;2022-08-11T06:52:01;101531.88;;;24.89;36.84
9141;BME280;46330;50.822;7.126;2022-08-11T06:54:33;101536.81;;;25.76;35.54
9141;BME280;46330;50.822;7.126;2022-08-11T06:57:04;101535.38;;;26.22;34.38
9141;BME280;46330;50.822;7.126;2022-08-11T06:59:59;101539.41;;;25.90;35.31
9141;BME280;46330;50.822;7.126;2022-08-11T07:02:57;101536.00;;;26.38;34.38
9141;BME280;46330;50.822;7.126;2022-08-11T07:05:38;101535.78;;;26.41;34.00
9141;BME280;46330;50.822;7.126;2022-08-11T07:08:33;101529.53;;;26.53;33.71
9141;BME280;46330;50.822;7.126;2022-08-11T07:14:49;101531.19;;;27.05;32.61
9141;BME280;46330;50.822;7.126;2022-08-11T07:17:41;101538.34;;;26.68;32.46
9141;BME280;46330;50.822;7.126;2022-08-11T07:20:16;101536.13;;;26.37;33.14
9141;BME280;46330;50.822;7.126;2022-08-11T07:23:05;101533.59;;;26.71;32.58
9141;BME280;46330;50.822;7.126;2022-08-11T07:25:55;101532.34;;;27.24;31.84
9141;BME280;46330;50.822;7.126;2022-08-11T07:28:46;101537.41;;;27.05;31.66
9141;BME280;46330;50.822;7.126;2022-08-11T07:31:30;101533.03;;;27.52;31.36
9141;BME280;46330;50.822;7.126;2022-08-11T07:34:11;101534.66;;;27.65;31.00
9141;BME280;46330;50.822;7.126;2022-08-11T07:36:45;101522.84;;;28.36;29.37
9141;BME280;46330;50.822;7.126;2022-08-11T07:39:19;101531.00;;;28.12;29.61
9141;BME280;46330;50.822;7.126;2022-08-11T07:41:51;101523.94;;;28.11;29.94
9141;BME280;46330;50.822;7.126;2022-08-11T07:44:20;101522.72;;;27.81;29.85
9141;BME280;46330;50.822;7.126;2022-08-11T07:46:58;101525.31;;;27.93;29.68
9141;BME280;46330;50.822;7.126;2022-08-11T07:49:47;101521.59;;;28.40;29.49
9141;BME280;46330;50.822;7.126;2022-08-11T07:52:35;101520.38;;;28.55;28.97
9141;BME280;46330;50.822;7.126;2022-08-11T07:55:10;101522.00;;;29.12;28.00
9141;BME280;46330;50.822;7.126;2022-08-11T07:57:39;101523.91;;;29.00;27.66
9141;BME280;46330;50.822;7.126;2022-08-11T08:00:48;101524.50;;;29.47;27.38
9141;BME280;46330;50.822;7.126;2022-08-11T08:03:38;101519.19;;;29.77;26.91
9141;BME280;46330;50.822;7.126;2022-08-11T08:06:25;101515.25;;;29.28;27.60
9141;BME280;46330;50.822;7.126;2022-08-11T08:09:13;101525.31;;;30.20;26.15
9141;BME280;46330;50.822;7.126;2022-08-11T08:12:01;101520.13;;;30.08;26.79
9141;BME280;46330;50.822;7.126;2022-08-11T08:14:48;101530.28;;;29.95;26.72
9141;BME280;46330;50.822;7.126;2022-08-11T08:17:34;101529.41;;;29.73;26.50
9141;BME280;46330;50.822;7.126;2022-08-11T08:20:45;101524.72;;;29.55;27.34
9141;BME280;46330;50.822;7.126;2022-08-11T08:23:17;101527.81;;;29.07;27.85
9141;BME280;46330;50.822;7.126;2022-08-11T08:25:59;101526.69;;;30.15;26.60
9141;BME280;46330;50.822;7.126;2022-08-11T08:28:27;101525.13;;;30.63;25.13
9141;BME280;46330;50.822;7.126;2022-08-11T08:30:59;101529.25;;;31.07;25.20
9141;BME280;46330;50.822;7.126;2022-08-11T08:33:28;101533.50;;;31.00;24.98
9141;BME280;46330;50.822;7.126;2022-08-11T08:35:58;101528.19;;;29.98;26.57
9141;BME280;46330;50.822;7.126;2022-08-11T08:38:41;101529.09;;;31.09;25.31
9141;BME280;46330;50.822;7.126;2022-08-11T08:41:10;101523.94;;;32.21;23.51
9141;BME280;46330;50.822;7.126;2022-08-11T08:43:44;101524.84;;;32.39;23.59
9141;BME280;46330;50.822;7.126;2022-08-11T08:46:18;101531.31;;;33.20;22.53
9141;BME280;46330;50.822;7.126;2022-08-11T08:48:48;101525.88;;;32.38;23.90
9141;BME280;46330;50.822;7.126;2022-08-11T08:51:21;101521.72;;;33.43;22.52
9141;BME280;46330;50.822;7.126;2022-08-11T08:54:28;101526.41;;;33.41;22.06
9141;BME280;46330;50.822;7.126;2022-08-11T08:56:57;101521.13;;;32.49;23.18
9141;BME280;46330;50.822;7.126;2022-08-11T08:59:33;101515.41;;;34.21;21.44
9141;BME280;46330;50.822;7.126;2022-08-11T09:02:15;101525.19;;;35.24;20.55
9141;BME280;46330;50.822;7.126;2022-08-11T09:05:00;101525.28;;;34.04;20.90
9141;BME280;46330;50.822;7.126;2022-08-11T09:07:30;101517.19;;;34.13;21.27
9141;BME280;46330;50.822;7.126;2022-08-11T09:10:08;101522.88;;;34.01;20.99
9141;BME280;46330;50.822;7.126;2022-08-11T09:12:39;101522.28;;;34.67;20.35
9141;BME280;46330;50.822;7.126;2022-08-11T09:15:10;101519.16;;;33.59;21.52
9141;BME280;46330;50.822;7.126;2022-08-11T09:17:40;101518.50;;;33.47;21.91
9141;BME280;46330;50.822;7.126;2022-08-11T09:20:14;101519.56;;;33.01;22.11
9141;BME280;46330;50.822;7.126;2022-08-11T09:22:45;101513.84;;;34.86;20.78
9141;BME280;46330;50.822;7.126;2022-08-11T09:25:55;101526.75;;;35.83;19.51
9141;BME280;46330;50.822;7.126;2022-08-11T09:28:42;101518.72;;;35.33;19.47
9141;BME280;46330;50.822;7.126;2022-08-11T09:31:11;101524.19;;;36.13;19.14
9141;BME280;46330;50.822;7.126;2022-08-11T09:33:41;101520.84;;;36.58;18.47
9141;BME280;46330;50.822;7.126;2022-08-11T09:36:11;101515.91;;;36.46;17.93
9141;BME280;46330;50.822;7.126;2022-08-11T09:38:57;101517.19;;;35.38;18.98
9141;BME280;46330;50.822;7.126;2022-08-11T09:41:46;101511.78;;;36.50;18.06
9141;BME280;46330;50.822;7.126;2022-08-11T09:44:29;101497.38;;;36.80;17.38
9141;BME280;46330;50.822;7.126;2022-08-11T09:47:20;101506.47;;;35.85;18.52
9141;BME280;46330;50.822;7.126;2022-08-11T09:49:51;101508.03;;;37.66;16.83
9141;BME280;46330;50.822;7.126;2022-08-11T09:52:21;101506.56;;;37.10;16.47
9141;BME280;46330;50.822;7.126;2022-08-11T09:54:50;101501.91;;;36.57;16.25
9141;BME280;46330;50.822;7.126;2022-08-11T09:57:21;101502.56;;;35.23;17.44
9141;BME280;46330;50.822;7.126;2022-08-11T10:00:08;101493.78;;;37.56;15.95
9141;BME280;46330;50.822;7.126;2022-08-11T10:02:41;101497.94;;;37.52;15.94
9141;BME280;46330;50.822;7.126;2022-08-11T10:05:10;101496.41;;;35.94;17.31
9141;BME280;46330;50.822;7.126;2022-08-11T10:07:55;101484.97;;;37.00;16.27
9141;BME280;46330;50.822;7.126;2022-08-11T10:10:23;101479.25;;;35.69;17.37
9141;BME280;46330;50.822;7.126;2022-08-11T10:12:57;101487.94;;;35.24;17.79
9141;BME280;46330;50.822;7.126;2022-08-11T10:15:29;101474.13;;;36.84;16.69
9141;BME280;46330;50.822;7.126;2022-08-11T10:18:30;101461.19;;;35.92;17.17
9141;BME280;46330;50.822;7.126;2022-08-11T10:21:22;101465.13;;;35.82;17.60
9141;BME280;46330;50.822;7.126;2022-08-11T10:23:54;101463.31;;;36.29;17.63
9141;BME280;46330;50.822;7.126;2022-08-11T10:26:41;101475.78;;;36.62;16.94
9141;BME280;46330;50.822;7.126;2022-08-11T10:29:30;101471.59;;;35.24;17.31
9141;BME280;46330;50.822;7.126;2022-08-11T10:32:20;101462.25;;;35.59;17.09
9141;BME280;46330;50.822;7.126;2022-08-11T10:35:26;101461.91;;;35.86;16.46
9141;BME280;46330;50.822;7.126;2022-08-11T10:37:55;101446.50;;;36.18;16.21
9141;BME280;46330;50.822;7.126;2022-08-11T10:40:36;101445.75;;;35.52;17.14
9141;BME280;46330;50.822;7.126;2022-08-11T10:43:06;101441.00;;;35.30;17.41
9141;BME280;46330;50.822;7.126;2022-08-11T10:45:44;101451.81;;;34.98;17.63
9141;BME280;46330;50.822;7.126;2022-08-11T10:48:37;101453.13;;;36.15;16.42
9141;BME280;46330;50.822;7.126;2022-08-11T10:51:06;101444.84;;;36.08;16.76
9141;BME280;46330;50.822;7.126;2022-08-11T10:53:42;101441.97;;;37.02;15.71
9141;BME280;46330;50.822;7.126;2022-08-11T10:56:28;101446.88;;;38.19;15.49
9141;BME280;46330;50.822;7.126;2022-08-11T10:59:15;101437.56;;;37.01;16.19
9141;BME280;46330;50.822;7.126;2022-08-11T11:01:45;101427.56;;;36.63;16.21
9141;BME280;46330;50.822;7.126;2022-08-11T11:04:15;101420.09;;;36.57;16.50
9141;BME280;46330;50.822;7.126;2022-08-11T11:06:50;101418.19;;;37.34;16.23
9141;BME280;46330;50.822;7.126;2022-08-11T11:09:23;101417.03;;;38.89;14.70
9141;BME280;46330;50.822;7.126;2022-08-11T11:11:58;101407.19;;;37.42;15.80
9141;BME280;46330;50.822;7.126;2022-08-11T11:14:44;101411.09;;;36.09;16.52
9141;BME280;46330;50.822;7.126;2022-08-11T11:17:42;101407.94;;;35.01;17.50
9141;BME280;46330;50.822;7.126;2022-08-11T11:20:24;101408.19;;;34.57;18.24
9141;BME280;46330;50.822;7.126;2022-08-11T11:23:07;101401.88;;;35.15;18.25
9141;BME280;46330;50.822;7.126;2022-08-11T11:25:53;101403.03;;;34.38;18.33
9141;BME280;46330;50.822;7.126;2022-08-11T11:29:02;101394.00;;;35.69;17.40
9141;BME280;46330;50.822;7.126;2022-08-11T11:31:45;101398.59;;;35.76;17.40
9141;BME280;46330;50.822;7.126;2022-08-11T11:34:31;101394.78;;;37.02;16.41
9141;BME280;46330;50.822;7.126;2022-08-11T11:37:19;101394.03;;;35.60;17.38
9141;BME280;46330;50.822;7.126;2022-08-11T11:39:47;101386.22;;;35.25;18.06
9141;BME280;46330;50.822;7.126;2022-08-11T11:42:16;101382.59;;;35.73;17.06
9141;BME280;46330;50.822;7.126;2022-08-11T11:44:45;101373.28;;;36.45;16.96
9141;BME280;46330;50.822;7.126;2022-08-11T11:47:15;101373.81;;;37.54;16.08
9141;BME280;46330;50.822;7.126;2022-08-11T11:49:46;101368.00;;;37.35;16.18
9141;BME280;46330;50.822;7.126;2022-08-11T11:52:16;101376.88;;;39.17;15.26
9141;BME280;46330;50.822;7.126;2022-08-11T11:54:46;101372.00;;;39.13;14.86
9141;BME280;46330;50.822;7.126;2022-08-11T11:57:16;101371.91;;;38.28;14.75
9141;BME280;46330;50.822;7.126;2022-08-11T12:00:05;101365.94;;;36.54;16.38
9141;BME280;46330;50.822;7.126;2022-08-11T12:03:01;101370.22;;;35.46;17.38
9141;BME280;46330;50.822;7.126;2022-08-11T12:05:33;101370.53;;;35.68;16.73
9141;BME280;46330;50.822;7.126;2022-08-11T12:08:02;101366.66;;;34.31;17.77
9141;BME280;46330;50.822;7.126;2022-08-11T12:10:43;101356.63;;;34.98;17.31
9141;BME280;46330;50.822;7.126;2022-08-11T12:13:12;101338.56;;;36.08;16.70
9141;BME280;46330;50.822;7.126;2022-08-11T12:15:59;101338.16;;;36.96;16.03
9141;BME280;46330;50.822;7.126;2022-08-11T12:18:50;101347.41;;;35.55;17.20
9141;BME280;46330;50.822;7.126;2022-08-11T12:21:22;101340.06;;;36.03;16.80
9141;BME280;46330;50.822;7.126;2022-08-11T12:23:50;101328.94;;;35.82;17.09
9141;BME280;46330;50.822;7.126;2022-08-11T12:26:37;101333.47;;;36.36;16.39
9141;BME280;46330;50.822;7.126;2022-08-11T12:29:39;101326.13;;;35.67;16.50
9141;BME280;46330;50.822;7.126;2022-08-11T12:32:10;101316.69;;;35.15;17.64
9141;BME280;46330;50.822;7.126;2022-08-11T12:34:38;101328.50;;;36.71;15.88
9141;BME280;46330;50.822;7.126;2022-08-11T12:37:08;101328.03;;;35.97;16.63
9141;BME280;46330;50.822;7.126;2022-08-11T12:39:43;101312.91;;;36.79;15.97
9141;BME280;46330;50.822;7.126;2022-08-11T12:42:51;101309.41;;;36.17;16.19
9141;BME280;46330;50.822;7.126;2022-08-11T12:45:53;101307.84;;;35.76;17.05
9141;BME280;46330;50.822;7.126;2022-08-11T12:48:27;101307.47;;;35.16;17.14
9141;BME280;46330;50.822;7.126;2022-08-11T12:51:31;101315.78;;;36.32;16.03
9141;BME280;46330;50.822;7.126;2022-08-11T12:54:44;101303.31;;;36.83;16.11
9141;BME280;46330;50.822;7.126;2022-08-11T12:57:19;101305.13;;;37.43;15.48
9141;BME280;46330;50.822;7.126;2022-08-11T13:00:10;101294.97;;;35.70;16.57
9141;BME280;46330;50.822;7.126;2022-08-11T13:02:56;101295.38;;;37.48;15.80
9141;BME280;46330;50.822;7.126;2022-08-11T13:05:45;101299.47;;;35.06;16.75
9141;BME280;46330;50.822;7.126;2022-08-11T13:08:16;101290.97;;;36.73;15.93
9141;BME280;46330;50.822;7.126;2022-08-11T13:10:46;101294.06;;;36.70;15.77
9141;BME280;46330;50.822;7.126;2022-08-11T13:13:34;101285.09;;;37.36;15.21
9141;BME280;46330;50.822;7.126;2022-08-11T13:16:24;101293.53;;;36.43;15.97
9141;BME280;46330;50.822;7.126;2022-08-11T13:18:53;101283.41;;;37.49;14.97
9141;BME280;46330;50.822;7.126;2022-08-11T13:21:22;101288.28;;;37.39;15.01
9141;BME280;46330;50.822;7.126;2022-08-11T13:23:52;101288.28;;;34.93;17.14
9141;BME280;46330;50.822;7.126;2022-08-11T13:26:35;101267.19;;;36.81;15.98
9141;BME280;46330;50.822;7.126;2022-08-11T13:29:17;101277.56;;;36.63;16.17
9141;BME280;46330;50.822;7.126;2022-08-11T13:31:46;101273.94;;;36.71;16.22
9141;BME280;46330;50.822;7.126;2022-08-11T13:34:15;101264.44;;;37.04;15.64
9141;BME280;46330;50.822;7.126;2022-08-11T13:36:43;101261.66;;;36.89;16.06
9141;BME280;46330;50.822;7.126;2022-08-11T13:39:12;101272.28;;;36.39;16.33
9141;BME280;46330;50.822;7.126;2022-08-11T13:41:43;101269.06;;;36.12;16.37
9141;BME280;46330;50.822;7.126;2022-08-11T13:44:15;101265.09;;;37.06;16.21
9141;BME280;46330;50.822;7.126;2022-08-11T13:46:52;101255.03;;;38.15;15.21
9141;BME280;46330;50.822;7.126;2022-08-11T13:49:21;101253.84;;;37.24;15.65
9141;BME280;46330;50.822;7.126;2022-08-11T13:51:50;101248.38;;;37.24;15.85
9141;BME280;46330;50.822;7.126;2022-08-11T13:54:21;101246.84;;;37.06;15.90
9141;BME280;46330;50.822;7.126;2022-08-11T13:56:54;101257.56;;;36.25;16.34
9141;BME280;46330;50.822;7.126;2022-08-11T13:59:23;101242.44;;;35.45;16.88
9141;BME280;46330;50.822;7.126;2022-08-11T14:01:58;101244.97;;;34.67;18.01
9141;BME280;46330;50.822;7.126;2022-08-11T14:04:55;101255.94;;;34.17;18.54
9141;BME280;46330;50.822;7.126;2022-08-11T14:07:26;101238.00;;;35.60;16.73
9141;BME280;46330;50.822;7.126;2022-08-11T14:10:02;101235.44;;;35.50;16.95
9141;BME280;46330;50.822;7.126;2022-08-11T14:12:34;101229.09;;;35.97;16.83
9141;BME280;46330;50.822;7.126;2022-08-11T14:15:22;101227.59;;;35.94;16.43
9141;BME280;46330;50.822;7.126;2022-08-11T14:17:53;101216.19;;;35.91;16.26
9141;BME280;46330;50.822;7.126;2022-08-11T14:20:23;101217.66;;;36.32;16.17
9141;BME280;46330;50.822;7.126;2022-08-11T14:23:13;101209.84;;;36.29;16.01
9141;BME280;46330;50.822;7.126;2022-08-11T14:25:41;101211.47;;;36.16;16.30
9141;BME280;46330;50.822;7.126;2022-08-11T14:28:33;101203.19;;;36.46;16.25
9141;BME280;46330;50.822;7.126;2022-08-11T14:31:11;101204.16;;;34.51;17.98
9141;BME280;46330;50.822;7.126;2022-08-11T14:33:40;101198.38;;;34.38;17.85
9141;BME280;46330;50.822;7.126;2022-08-11T14:36:32;101201.97;;;33.64;17.88
9141;BME280;46330;50.822;7.126;2022-08-11T14:39:04;101201.59;;;34.09;18.04
9141;BME280;46330;50.822;7.126;2022-08-11T14:41:33;101184.31;;;34.42;17.47
9141;BME280;46330;50.822;7.126;2022-08-11T14:44:42;101196.50;;;33.56;17.57
9141;BME280;46330;50.822;7.126;2022-08-11T14:47:30;101186.91;;;33.36;18.31
9141;BME280;46330;50.822;7.126;2022-08-11T14:50:00;101191.53;;;33.43;17.87
9141;BME280;46330;50.822;7.126;2022-08-11T14:52:42;101186.91;;;33.28;18.45
9141;BME280;46330;50.822;7.126;2022-08-11T14:55:12;101183.88;;;33.39;18.76
9141;BME280;46330;50.822;7.126;2022-08-11T14:57:59;101181.84;;;33.83;18.26
9141;BME280;46330;50.822;7.126;2022-08-11T15:00:30;101181.88;;;34.07;17.56
9141;BME280;46330;50.822;7.126;2022-08-11T15:03:00;101176.00;;;34.28;17.68
9141;BME280;46330;50.822;7.126;2022-08-11T15:05:42;101187.94;;;33.69;18.06
9141;BME280;46330;50.822;7.126;2022-08-11T15:08:27;101181.22;;;33.47;18.29
9141;BME280;46330;50.822;7.126;2022-08-11T15:11:16;101174.94;;;32.87;18.65
9141;BME280;46330;50.822;7.126;2022-08-11T15:14:03;101167.53;;;33.23;18.50